createdAt,value
2023-04-25T00:00:10.992Z,26.73
2023-04-25T00:01:11.050Z,26.73
2023-04-25T00:02:11.197Z,26.72
2023-04-25T00:03:11.234Z,26.73
2023-04-25T00:04:11.365Z,26.72
2023-04-25T00:05:11.292Z,26.73
2023-04-25T00:06:11.265Z,26.73
2023-04-25T00:07:11.347Z,26.72
2023-04-25T00:08:11.400Z,26.73
2023-04-25T00:09:11.474Z,26.70
2023-04-25T00:10:11.543Z,26.72
2023-04-25T00:11:11.572Z,26.72
2023-04-25T00:12:11.610Z,26.70
2023-04-25T00:13:11.681Z,26.70
2023-04-25T00:14:11.756Z,26.73
2023-04-25T00:15:11.851Z,26.70
2023-04-25T00:16:11.937Z,26.69
2023-04-25T00:17:11.933Z,26.70
2023-04-25T00:18:11.955Z,26.72
2023-04-25T00:19:12.030Z,26.70
2023-04-25T00:20:12.111Z,26.69
2023-04-25T00:21:12.178Z,26.70
2023-04-25T00:22:12.220Z,26.69
2023-04-25T00:23:12.272Z,26.67
2023-04-25T00:24:12.407Z,26.69
2023-04-25T00:25:12.442Z,26.69
2023-04-25T00:26:12.475Z,26.67
2023-04-25T00:27:12.536Z,26.67
2023-04-25T00:28:12.596Z,26.69
2023-04-25T00:29:12.655Z,26.69
2023-04-25T00:30:12.705Z,26.69
2023-04-25T00:31:12.814Z,26.67
2023-04-25T00:32:12.841Z,26.69
2023-04-25T00:33:13.004Z,26.69
2023-04-25T00:34:13.005Z,26.66
2023-04-25T00:35:13.038Z,26.67
2023-04-25T00:36:13.102Z,26.67
2023-04-25T00:37:13.198Z,26.66
2023-04-25T00:38:13.258Z,26.66
2023-04-25T00:39:13.303Z,26.66
2023-04-25T00:40:13.353Z,26.66
2023-04-25T00:41:13.417Z,26.66
2023-04-25T00:42:13.488Z,26.67
2023-04-25T00:43:13.568Z,26.66
2023-04-25T00:44:13.658Z,26.67
2023-04-25T00:45:13.683Z,26.66
2023-04-25T00:46:13.811Z,26.66
2023-04-25T00:47:13.789Z,26.67
2023-04-25T00:48:13.890Z,26.64
2023-04-25T00:49:13.972Z,26.67
2023-04-25T00:50:14.000Z,26.69
2023-04-25T00:51:14.058Z,26.66
2023-04-25T00:52:14.135Z,26.66
2023-04-25T00:53:14.201Z,26.64
2023-04-25T00:54:14.263Z,26.66
2023-04-25T00:55:14.316Z,26.67
2023-04-25T00:56:14.374Z,26.67
2023-04-25T00:57:14.420Z,26.66
2023-04-25T00:58:14.486Z,26.64
2023-04-25T00:59:14.579Z,26.69
2023-04-25T01:00:14.620Z,26.64
2023-04-25T01:01:14.676Z,26.64
2023-04-25T01:02:14.857Z,26.63
2023-04-25T01:03:14.894Z,26.62
2023-04-25T01:04:15.083Z,26.64
2023-04-25T01:05:14.915Z,26.63
2023-04-25T01:06:14.977Z,26.66
2023-04-25T01:07:15.041Z,26.64
2023-04-25T01:08:15.103Z,26.64
2023-04-25T01:09:15.156Z,26.66
2023-04-25T01:10:15.215Z,26.62
2023-04-25T01:11:15.299Z,26.63
2023-04-25T01:12:15.336Z,26.63
2023-04-25T01:13:15.405Z,26.63
2023-04-25T01:14:15.470Z,26.62
2023-04-25T01:15:15.533Z,26.60
2023-04-25T01:16:15.628Z,26.62
2023-04-25T01:17:15.664Z,26.62
2023-04-25T01:18:15.713Z,26.62
2023-04-25T01:19:15.776Z,26.60
2023-04-25T01:20:15.840Z,26.60
2023-04-25T01:21:15.920Z,26.62
2023-04-25T01:22:15.920Z,26.60
2023-04-25T01:23:16.024Z,26.62
2023-04-25T01:24:16.091Z,26.59
2023-04-25T01:25:16.117Z,26.59
2023-04-25T01:26:16.191Z,26.62
2023-04-25T01:27:16.253Z,26.59
2023-04-25T01:28:16.280Z,26.62
2023-04-25T01:29:16.340Z,26.63
2023-04-25T01:30:16.443Z,26.62
2023-04-25T01:31:16.502Z,26.62
2023-04-25T01:32:16.596Z,26.59
2023-04-25T01:33:16.610Z,26.59
2023-04-25T01:34:16.676Z,26.60
2023-04-25T01:35:16.731Z,26.62
2023-04-25T01:36:16.768Z,26.62
2023-04-25T01:37:16.838Z,26.60
2023-04-25T01:38:16.880Z,26.60
2023-04-25T01:39:16.963Z,26.60
2023-04-25T01:40:16.983Z,26.57
2023-04-25T01:41:17.008Z,26.60
2023-04-25T01:42:17.039Z,26.60
2023-04-25T01:43:17.088Z,26.62
2023-04-25T01:44:17.163Z,26.59
2023-04-25T01:45:17.208Z,26.62
2023-04-25T01:46:17.315Z,26.60
2023-04-25T01:47:17.292Z,26.57
2023-04-25T01:48:17.349Z,26.60
2023-04-25T01:49:17.405Z,26.56
2023-04-25T01:50:17.422Z,26.60
2023-04-25T01:51:17.479Z,26.60
2023-04-25T01:52:17.542Z,26.60
2023-04-25T01:53:17.567Z,26.59
2023-04-25T01:54:17.657Z,26.59
2023-04-25T01:55:17.667Z,26.59
2023-04-25T01:56:17.679Z,26.60
2023-04-25T01:57:18.272Z,26.57
2023-04-25T01:58:17.773Z,26.59
2023-04-25T01:59:17.858Z,26.57
2023-04-25T02:00:17.904Z,26.57
2023-04-25T02:01:17.923Z,26.59
2023-04-25T02:02:18.001Z,26.56
2023-04-25T02:03:18.092Z,26.56
2023-04-25T02:04:18.215Z,26.56
2023-04-25T02:05:17.980Z,26.57
2023-04-25T02:06:18.007Z,26.56
2023-04-25T02:07:18.034Z,26.56
2023-04-25T02:08:18.059Z,26.59
2023-04-25T02:09:18.070Z,26.59
2023-04-25T02:10:18.137Z,26.55
2023-04-25T02:11:18.206Z,26.55
2023-04-25T02:12:18.242Z,26.56
2023-04-25T02:13:18.286Z,26.56
2023-04-25T02:14:18.337Z,26.59
2023-04-25T02:15:18.402Z,26.57
2023-04-25T02:16:18.573Z,26.56
2023-04-25T02:17:18.597Z,26.56
2023-04-25T02:18:18.622Z,26.56
2023-04-25T02:19:18.654Z,26.55
2023-04-25T02:20:18.704Z,26.56
2023-04-25T02:21:18.757Z,26.56
2023-04-25T02:22:18.784Z,26.55
2023-04-25T02:23:18.858Z,26.57
2023-04-25T02:24:18.854Z,26.56
2023-04-25T02:25:18.846Z,26.55
2023-04-25T02:26:18.892Z,26.57
2023-04-25T02:27:18.901Z,26.53
2023-04-25T02:28:18.926Z,26.57
2023-04-25T02:29:18.989Z,26.53
2023-04-25T02:30:19.010Z,26.53
2023-04-25T02:31:19.099Z,26.56
2023-04-25T02:32:19.059Z,26.53
2023-04-25T02:33:19.064Z,26.55
2023-04-25T02:34:19.111Z,26.57
2023-04-25T02:35:19.067Z,26.57
2023-04-25T02:36:19.098Z,26.55
2023-04-25T02:37:19.121Z,26.53
2023-04-25T02:38:19.133Z,26.57
2023-04-25T02:39:19.151Z,26.55
2023-04-25T02:40:19.113Z,26.55
2023-04-25T02:41:19.142Z,26.55
2023-04-25T02:42:19.176Z,26.55
2023-04-25T02:43:19.199Z,26.56
2023-04-25T02:44:19.271Z,26.52
2023-04-25T02:45:19.283Z,26.56
2023-04-25T02:46:28.640Z,26.55
2023-04-25T02:47:20.371Z,26.52
2023-04-25T02:48:19.344Z,26.56
2023-04-25T02:49:19.287Z,26.53
2023-04-25T02:50:19.272Z,26.53
2023-04-25T02:51:19.271Z,26.55
2023-04-25T02:52:19.240Z,26.55
2023-04-25T02:53:19.256Z,26.53
2023-04-25T02:54:19.238Z,26.53
2023-04-25T02:55:19.282Z,26.53
2023-04-25T02:56:19.212Z,26.52
2023-04-25T02:57:19.261Z,26.55
2023-04-25T02:58:19.197Z,26.55
2023-04-25T02:59:19.209Z,26.52
2023-04-25T03:00:19.212Z,26.52
2023-04-25T03:01:19.288Z,26.53
2023-04-25T03:02:19.207Z,26.53
2023-04-25T03:03:19.336Z,26.50
2023-04-25T03:04:19.231Z,26.50
2023-04-25T03:05:19.199Z,26.52
2023-04-25T03:06:19.161Z,26.52
2023-04-25T03:07:19.176Z,26.52
2023-04-25T03:08:19.132Z,26.50
2023-04-25T03:09:19.153Z,26.52
2023-04-25T03:10:19.145Z,26.49
2023-04-25T03:11:19.141Z,26.52
2023-04-25T03:12:19.130Z,26.49
2023-04-25T03:13:19.141Z,26.50
2023-04-25T03:14:19.107Z,26.50
2023-04-25T03:15:19.095Z,26.49
2023-04-25T03:16:19.176Z,26.49
2023-04-25T03:17:19.093Z,26.49
2023-04-25T03:18:19.100Z,26.47
2023-04-25T03:19:19.076Z,26.49
2023-04-25T03:20:19.066Z,26.49
2023-04-25T03:21:19.041Z,26.49
2023-04-25T03:22:19.044Z,26.47
2023-04-25T03:23:19.051Z,26.47
2023-04-25T03:24:19.049Z,26.47
2023-04-25T03:25:19.065Z,26.47
2023-04-25T03:26:19.015Z,26.45
2023-04-25T03:27:19.049Z,26.46
2023-04-25T03:28:19.014Z,26.45
2023-04-25T03:29:19.001Z,26.47
2023-04-25T03:30:19.010Z,26.47
2023-04-25T03:31:19.010Z,26.47
2023-04-25T03:32:19.046Z,26.49
2023-04-25T03:33:18.999Z,26.47
2023-04-25T03:34:19.024Z,26.47
2023-04-25T03:35:18.976Z,26.47
2023-04-25T03:36:18.940Z,26.47
2023-04-25T03:37:18.953Z,26.47
2023-04-25T03:38:18.950Z,26.47
2023-04-25T03:39:18.946Z,26.46
2023-04-25T03:40:18.951Z,26.46
2023-04-25T03:41:18.910Z,26.45
2023-04-25T03:42:18.926Z,26.46
2023-04-25T03:43:18.940Z,26.45
2023-04-25T03:44:18.918Z,26.45
2023-04-25T03:45:18.936Z,26.45
2023-04-25T03:46:18.939Z,26.46
2023-04-25T03:47:18.895Z,26.43
2023-04-25T03:48:18.863Z,26.45
2023-04-25T03:49:19.584Z,26.43
2023-04-25T03:50:18.852Z,26.45
2023-04-25T03:51:18.874Z,26.43
2023-04-25T03:52:18.845Z,26.45
2023-04-25T03:53:18.877Z,26.43
2023-04-25T03:54:18.882Z,26.42
2023-04-25T03:55:18.855Z,26.45
2023-04-25T03:56:18.860Z,26.42
2023-04-25T03:57:18.862Z,26.42
2023-04-25T03:58:18.840Z,26.43
2023-04-25T03:59:18.853Z,26.42
2023-04-25T04:00:18.846Z,26.43
2023-04-25T04:01:18.862Z,26.42
2023-04-25T04:02:18.933Z,26.43
2023-04-25T04:03:19.037Z,26.40
2023-04-25T04:04:19.194Z,26.43
2023-04-25T04:05:18.963Z,26.42
2023-04-25T04:06:18.872Z,26.40
2023-04-25T04:07:18.875Z,26.43
2023-04-25T04:08:18.909Z,26.39
2023-04-25T04:09:18.946Z,26.40
2023-04-25T04:10:18.913Z,26.39
2023-04-25T04:11:18.897Z,26.42
2023-04-25T04:12:18.929Z,26.40
2023-04-25T04:13:18.934Z,26.40
2023-04-25T04:14:18.957Z,26.39
2023-04-25T04:15:18.951Z,26.39
2023-04-25T04:16:18.976Z,26.40
2023-04-25T04:17:18.934Z,26.38
2023-04-25T04:18:18.952Z,26.39
2023-04-25T04:19:18.953Z,26.38
2023-04-25T04:20:18.971Z,26.40
2023-04-25T04:21:18.952Z,26.38
2023-04-25T04:22:19.007Z,26.38
2023-04-25T04:23:18.991Z,26.39
2023-04-25T04:24:18.979Z,26.39
2023-04-25T04:25:18.983Z,26.39
2023-04-25T04:26:18.994Z,26.40
2023-04-25T04:27:18.997Z,26.38
2023-04-25T04:28:18.988Z,26.39
2023-04-25T04:29:19.037Z,26.39
2023-04-25T04:30:19.002Z,26.38
2023-04-25T04:31:19.135Z,26.39
2023-04-25T04:32:19.047Z,26.39
2023-04-25T04:33:19.028Z,26.39
2023-04-25T04:34:19.065Z,26.39
2023-04-25T04:35:19.053Z,26.38
2023-04-25T04:36:19.031Z,26.38
2023-04-25T04:37:19.040Z,26.38
2023-04-25T04:38:19.038Z,26.38
2023-04-25T04:39:19.087Z,26.38
2023-04-25T04:40:19.108Z,26.36
2023-04-25T04:41:19.087Z,26.39
2023-04-25T04:42:19.089Z,26.38
2023-04-25T04:43:19.120Z,26.36
2023-04-25T04:44:19.116Z,26.36
2023-04-25T04:45:19.142Z,26.39
2023-04-25T04:46:19.174Z,26.36
2023-04-25T04:47:19.149Z,26.35
2023-04-25T04:48:19.139Z,26.38
2023-04-25T04:49:19.152Z,26.36
2023-04-25T04:50:19.179Z,26.36
2023-04-25T04:51:19.166Z,26.36
2023-04-25T04:52:19.198Z,26.35
2023-04-25T04:53:19.171Z,26.34
2023-04-25T04:54:19.190Z,26.36
2023-04-25T04:55:19.169Z,26.35
2023-04-25T04:56:19.189Z,26.38
2023-04-25T04:57:19.213Z,26.36
2023-04-25T04:58:19.314Z,26.36
2023-04-25T04:59:19.209Z,26.38
2023-04-25T05:00:19.266Z,26.36
2023-04-25T05:01:19.327Z,26.36
2023-04-25T05:02:19.292Z,26.36
2023-04-25T05:03:19.353Z,26.35
2023-04-25T05:04:19.478Z,26.35
2023-04-25T05:05:19.360Z,26.36
2023-04-25T05:06:19.289Z,26.38
2023-04-25T05:07:19.297Z,26.34
2023-04-25T05:08:19.306Z,26.34
2023-04-25T05:09:19.331Z,26.36
2023-04-25T05:10:19.346Z,26.35
2023-04-25T05:11:20.337Z,26.36
2023-04-25T05:12:19.374Z,26.36
2023-04-25T05:13:19.358Z,26.35
2023-04-25T05:14:19.400Z,26.36
2023-04-25T05:15:19.389Z,26.36
2023-04-25T05:16:19.482Z,26.35
2023-04-25T05:17:19.413Z,26.32
2023-04-25T05:18:20.570Z,26.35
2023-04-25T05:19:19.478Z,26.36
2023-04-25T05:20:19.425Z,26.35
2023-04-25T05:21:19.434Z,26.35
2023-04-25T05:22:19.440Z,26.34
2023-04-25T05:23:19.456Z,26.34
2023-04-25T05:24:19.452Z,26.35
2023-04-25T05:25:19.494Z,26.34
2023-04-25T05:26:19.462Z,26.35
2023-04-25T05:27:19.455Z,26.34
2023-04-25T05:28:19.459Z,26.35
2023-04-25T05:29:19.484Z,26.36
2023-04-25T05:30:19.505Z,26.36
2023-04-25T05:31:19.515Z,26.34
2023-04-25T05:32:19.586Z,26.36
2023-04-25T05:33:19.509Z,26.35
2023-04-25T05:34:19.505Z,26.35
2023-04-25T05:35:19.904Z,26.35
2023-04-25T05:36:19.494Z,26.34
2023-04-25T05:37:19.517Z,26.32
2023-04-25T05:38:19.508Z,26.34
2023-04-25T05:39:19.508Z,26.34
2023-04-25T05:40:19.511Z,26.34
2023-04-25T05:41:19.519Z,26.34
2023-04-25T05:42:19.523Z,26.35
2023-04-25T05:43:19.526Z,26.35
2023-04-25T05:44:19.518Z,26.36
2023-04-25T05:45:19.913Z,26.39
2023-04-25T05:46:19.584Z,26.42
2023-04-25T05:47:19.526Z,26.39
2023-04-25T05:48:19.560Z,26.45
2023-04-25T05:49:19.829Z,26.45
2023-04-25T05:50:19.570Z,26.45
2023-04-25T05:51:19.598Z,26.46
2023-04-25T05:52:19.610Z,26.49
2023-04-25T05:53:19.644Z,26.50
2023-04-25T05:54:19.676Z,26.55
2023-04-25T05:55:19.661Z,26.55
2023-04-25T05:56:19.725Z,26.62
2023-04-25T05:57:19.779Z,26.60
2023-04-25T05:58:19.844Z,26.63
2023-04-25T05:59:19.861Z,26.67
2023-04-25T06:00:19.952Z,26.69
2023-04-25T06:01:20.106Z,26.73
2023-04-25T06:02:20.186Z,26.76
2023-04-25T06:03:20.949Z,26.76
2023-04-25T06:04:20.337Z,26.77
2023-04-25T06:05:20.421Z,26.82
2023-04-25T06:06:20.283Z,26.85
2023-04-25T06:07:20.340Z,26.87
2023-04-25T06:08:20.359Z,26.91
2023-04-25T06:09:20.396Z,26.93
2023-04-25T06:10:20.429Z,26.96
2023-04-25T06:11:20.466Z,26.97
2023-04-25T06:12:20.508Z,27.00
2023-04-25T06:13:20.534Z,27.01
2023-04-25T06:14:20.575Z,27.03
2023-04-25T06:16:20.585Z,27.08
2023-04-25T06:17:20.632Z,27.11
2023-04-25T06:18:20.581Z,27.13
2023-04-25T06:19:20.576Z,27.15
2023-04-25T06:20:20.560Z,27.18
2023-04-25T06:21:20.550Z,27.20
2023-04-25T06:22:20.558Z,27.23
2023-04-25T06:23:20.543Z,27.24
2023-04-25T06:24:20.521Z,27.26
2023-04-25T06:25:20.546Z,27.30
2023-04-25T06:26:20.563Z,27.28
2023-04-25T06:27:20.515Z,27.27
2023-04-25T06:28:20.499Z,27.28
2023-04-25T06:29:20.493Z,27.27
2023-04-25T06:30:20.492Z,27.27
2023-04-25T06:31:20.550Z,27.27
2023-04-25T06:32:20.466Z,27.28
2023-04-25T06:33:20.477Z,27.30
2023-04-25T06:34:20.497Z,27.31
2023-04-25T06:35:20.452Z,27.31
2023-04-25T06:36:20.471Z,27.33
2023-04-25T06:37:20.429Z,27.34
2023-04-25T06:38:20.428Z,27.36
2023-04-25T06:39:20.428Z,27.36
2023-04-25T06:40:20.421Z,27.36
2023-04-25T06:41:20.417Z,27.36
2023-04-25T06:42:20.392Z,27.36
2023-04-25T06:43:20.429Z,27.36
2023-04-25T06:44:20.404Z,27.36
2023-04-25T06:45:20.382Z,27.31
2023-04-25T06:46:20.412Z,27.31
2023-04-25T06:47:20.463Z,27.33
2023-04-25T06:48:20.367Z,27.34
2023-04-25T06:49:20.381Z,27.33
2023-04-25T06:50:20.386Z,27.36
2023-04-25T06:51:21.690Z,27.36
2023-04-25T06:52:20.461Z,27.36
2023-04-25T06:53:20.485Z,27.36
2023-04-25T06:54:20.511Z,27.33
2023-04-25T06:55:20.517Z,27.33
2023-04-25T06:56:20.571Z,27.30
2023-04-25T06:57:20.600Z,27.26
2023-04-25T06:58:20.601Z,27.24
2023-04-25T06:59:20.629Z,27.21
2023-04-25T07:00:20.662Z,27.20
2023-04-25T07:01:20.702Z,27.21
2023-04-25T07:02:20.835Z,27.21
2023-04-25T07:03:20.782Z,27.21
2023-04-25T07:04:21.052Z,27.23
2023-04-25T07:05:20.808Z,27.27
2023-04-25T07:06:20.823Z,27.27
2023-04-25T07:07:20.846Z,27.27
2023-04-25T07:08:20.858Z,27.28
2023-04-25T07:09:20.860Z,27.31
2023-04-25T07:10:20.913Z,27.33
2023-04-25T07:11:20.956Z,27.34
2023-04-25T07:12:20.929Z,27.37
2023-04-25T07:13:20.961Z,27.40
2023-04-25T07:14:20.978Z,27.40
2023-04-25T07:15:21.440Z,27.41
2023-04-25T07:16:21.043Z,27.42
2023-04-25T07:17:21.045Z,27.44
2023-04-25T07:18:21.042Z,27.47
2023-04-25T07:19:21.053Z,27.50
2023-04-25T07:20:21.094Z,27.52
2023-04-25T07:21:21.102Z,27.51
2023-04-25T07:22:21.126Z,27.51
2023-04-25T07:23:21.129Z,27.52
2023-04-25T07:24:21.122Z,27.54
2023-04-25T07:25:21.124Z,27.54
2023-04-25T07:26:21.170Z,27.51
2023-04-25T07:27:21.158Z,27.50
2023-04-25T07:28:21.213Z,27.50
2023-04-25T07:29:21.225Z,27.48
2023-04-25T07:30:21.241Z,27.51
2023-04-25T07:31:21.307Z,27.50
2023-04-25T07:32:21.457Z,27.50
2023-04-25T07:33:21.375Z,27.52
2023-04-25T07:34:21.378Z,27.51
2023-04-25T07:35:21.408Z,27.57
2023-04-25T07:36:21.394Z,27.55
2023-04-25T07:37:21.392Z,27.57
2023-04-25T07:38:21.375Z,27.57
2023-04-25T07:39:21.408Z,27.58
2023-04-25T07:40:21.421Z,27.58
2023-04-25T07:41:21.414Z,27.54
2023-04-25T07:42:21.375Z,27.55
2023-04-25T07:43:21.392Z,27.57
2023-04-25T07:44:21.377Z,27.58
2023-04-25T07:45:21.380Z,27.61
2023-04-25T07:46:21.482Z,27.58
2023-04-25T07:47:21.537Z,27.62
2023-04-25T07:48:21.451Z,27.66
2023-04-25T07:49:21.504Z,27.69
2023-04-25T07:50:21.582Z,27.72
2023-04-25T07:51:21.616Z,27.82
2023-04-25T07:52:21.698Z,27.87
2023-04-25T07:53:21.912Z,27.89
2023-04-25T07:54:21.814Z,27.92
2023-04-25T07:55:21.836Z,27.92
2023-04-25T07:56:21.942Z,27.95
2023-04-25T07:57:21.972Z,27.93
2023-04-25T07:58:22.058Z,27.93
2023-04-25T07:59:22.090Z,27.96
2023-04-25T08:00:22.155Z,27.95
2023-04-25T08:01:22.198Z,27.95
2023-04-25T08:02:22.229Z,27.95
2023-04-25T08:03:22.612Z,27.93
2023-04-25T08:04:22.387Z,27.95
2023-04-25T08:05:23.102Z,27.95
2023-04-25T08:06:22.614Z,27.96
2023-04-25T08:07:22.478Z,27.92
2023-04-25T08:08:22.480Z,27.92
2023-04-25T08:09:22.536Z,27.95
2023-04-25T08:10:22.703Z,27.93
2023-04-25T08:11:22.564Z,27.95
2023-04-25T08:12:23.531Z,27.95
2023-04-25T08:13:22.632Z,27.92
2023-04-25T08:14:22.618Z,27.89
2023-04-25T08:15:22.619Z,27.87
2023-04-25T08:16:23.079Z,27.87
2023-04-25T08:17:22.629Z,27.85
2023-04-25T08:18:22.723Z,27.87
2023-04-25T08:19:22.652Z,27.88
2023-04-25T08:20:22.696Z,27.91
2023-04-25T08:21:22.680Z,27.93
2023-04-25T08:22:22.695Z,27.95
2023-04-25T08:23:22.794Z,27.98
2023-04-25T08:24:22.814Z,27.99
2023-04-25T08:25:22.871Z,28.03
2023-04-25T08:26:22.982Z,28.05
2023-04-25T08:27:23.027Z,28.09
2023-04-25T08:28:23.071Z,28.11
2023-04-25T08:29:23.120Z,28.12
2023-04-25T08:30:23.186Z,28.11
2023-04-25T08:31:23.274Z,28.09
2023-04-25T08:32:23.235Z,28.03
2023-04-25T08:33:23.301Z,28.01
2023-04-25T08:34:23.248Z,27.93
2023-04-25T08:35:23.275Z,27.91
2023-04-25T08:36:37.593Z,27.84
2023-04-25T08:37:24.284Z,27.75
2023-04-25T08:38:23.276Z,27.72
2023-04-25T08:39:23.274Z,27.69
2023-04-25T08:40:23.249Z,27.65
2023-04-25T08:41:23.461Z,27.60
2023-04-25T08:42:23.246Z,27.61
2023-04-25T08:43:23.209Z,27.60
2023-04-25T08:44:23.256Z,27.51
2023-04-25T08:45:23.247Z,27.48
2023-04-25T08:46:23.254Z,27.47
2023-04-25T08:47:23.261Z,27.45
2023-04-25T08:48:23.166Z,27.45
2023-04-25T08:49:23.187Z,27.42
2023-04-25T08:50:23.201Z,27.47
2023-04-25T08:51:23.445Z,27.50
2023-04-25T08:52:23.217Z,27.51
2023-04-25T08:53:23.249Z,27.51
2023-04-25T08:54:34.098Z,27.58
2023-04-25T08:55:24.410Z,27.61
2023-04-25T08:56:23.254Z,27.65
2023-04-25T08:57:23.221Z,27.68
2023-04-25T08:58:23.215Z,27.72
2023-04-25T08:59:23.210Z,27.78
2023-04-25T09:00:23.203Z,27.82
2023-04-25T09:01:23.317Z,27.85
2023-04-25T09:02:23.306Z,27.88
2023-04-25T09:03:23.440Z,27.89
2023-04-25T09:04:23.220Z,27.88
2023-04-25T09:05:23.169Z,27.91
2023-04-25T09:06:23.457Z,27.92
2023-04-25T09:07:23.164Z,27.92
2023-04-25T09:08:23.175Z,27.93
2023-04-25T09:09:23.142Z,27.96
2023-04-25T09:10:23.174Z,27.96
2023-04-25T09:11:23.655Z,27.98
2023-04-25T09:12:23.146Z,28.01
2023-04-25T09:13:23.145Z,28.02
2023-04-25T09:14:23.139Z,28.05
2023-04-25T09:15:23.198Z,28.05
2023-04-25T09:16:23.320Z,28.06
2023-04-25T09:17:23.372Z,28.09
2023-04-25T09:18:29.919Z,28.09
2023-04-25T09:20:23.354Z,28.09
2023-04-25T09:21:23.369Z,28.08
2023-04-25T09:22:23.338Z,28.05
2023-04-25T09:23:23.339Z,28.05
2023-04-25T09:24:23.344Z,28.05
2023-04-25T09:25:23.358Z,28.03
2023-04-25T09:26:23.317Z,28.05
2023-04-25T09:27:23.332Z,28.03
2023-04-25T09:28:23.318Z,27.98
2023-04-25T09:29:23.353Z,27.99
2023-04-25T09:30:23.395Z,27.98
2023-04-25T09:31:23.472Z,27.93
2023-04-25T09:32:23.624Z,27.93
2023-04-25T09:33:23.436Z,27.92
2023-04-25T09:34:23.403Z,27.92
2023-04-25T09:35:23.366Z,27.82
2023-04-25T09:36:23.381Z,27.84
2023-04-25T09:37:23.385Z,27.82
2023-04-25T09:38:23.415Z,27.78
2023-04-25T09:39:23.400Z,27.81
2023-04-25T09:40:23.395Z,27.80
2023-04-25T09:41:23.481Z,27.73
2023-04-25T09:42:23.379Z,27.73
2023-04-25T09:43:23.400Z,27.73
2023-04-25T09:44:23.380Z,27.75
2023-04-25T09:45:23.362Z,27.80
2023-04-25T09:46:23.414Z,27.78
2023-04-25T09:47:23.413Z,27.82
2023-04-25T09:48:23.367Z,27.81
2023-04-25T09:49:23.368Z,27.80
2023-04-25T09:50:23.372Z,27.73
2023-04-25T09:51:23.393Z,27.73
2023-04-25T09:52:25.652Z,27.80
2023-04-25T09:53:23.360Z,27.80
2023-04-25T09:54:23.350Z,27.78
2023-04-25T09:55:23.366Z,27.71
2023-04-25T09:56:23.352Z,27.66
2023-04-25T09:57:23.485Z,27.61
2023-04-25T09:58:23.327Z,27.60
2023-04-25T09:59:23.328Z,27.51
2023-04-25T10:00:23.286Z,27.48
2023-04-25T10:01:23.337Z,27.42
2023-04-25T10:02:23.353Z,27.38
2023-04-25T10:03:23.550Z,27.34
2023-04-25T10:04:23.328Z,27.30
2023-04-25T10:05:23.277Z,27.24
2023-04-25T10:06:23.232Z,27.27
2023-04-25T10:07:23.501Z,27.24
2023-04-25T10:08:23.238Z,27.20
2023-04-25T10:09:23.251Z,27.21
2023-04-25T10:10:23.226Z,27.24
2023-04-25T10:11:23.230Z,27.23
2023-04-25T10:12:23.240Z,27.21
2023-04-25T10:13:23.200Z,27.23
2023-04-25T10:14:23.189Z,27.26
2023-04-25T10:15:23.329Z,27.26
2023-04-25T10:16:23.324Z,27.27
2023-04-25T10:17:23.167Z,27.26
2023-04-25T10:18:23.171Z,27.24
2023-04-25T10:19:23.155Z,27.27
2023-04-25T10:20:23.194Z,27.28
2023-04-25T10:21:23.172Z,27.31
2023-04-25T10:22:23.180Z,27.31
2023-04-25T10:23:23.151Z,27.34
2023-04-25T10:24:23.161Z,27.30
2023-04-25T10:25:23.134Z,27.36
2023-04-25T10:26:23.120Z,27.38
2023-04-25T10:27:23.164Z,27.40
2023-04-25T10:28:23.129Z,27.40
2023-04-25T10:29:23.132Z,27.44
2023-04-25T10:30:23.102Z,27.44
2023-04-25T10:31:23.225Z,27.42
2023-04-25T10:32:23.175Z,27.41
2023-04-25T10:33:23.066Z,27.44
2023-04-25T10:34:23.082Z,27.45
2023-04-25T10:35:23.061Z,27.44
2023-04-25T10:36:23.060Z,27.47
2023-04-25T10:37:23.471Z,27.44
2023-04-25T10:38:23.050Z,27.45
2023-04-25T10:39:23.049Z,27.47
2023-04-25T10:40:23.060Z,27.48
2023-04-25T10:41:23.044Z,27.50
2023-04-25T10:42:23.465Z,27.57
2023-04-25T10:43:23.012Z,27.58
2023-04-25T10:44:22.978Z,27.60
2023-04-25T10:45:22.986Z,27.64
2023-04-25T10:46:23.062Z,27.65
2023-04-25T10:47:23.008Z,27.71
2023-04-25T10:48:22.967Z,27.80
2023-04-25T10:49:22.976Z,27.80
2023-04-25T10:50:22.948Z,27.85
2023-04-25T10:51:22.952Z,27.88
2023-04-25T10:52:22.936Z,27.92
2023-04-25T10:53:22.974Z,27.96
2023-04-25T10:54:22.948Z,27.99
2023-04-25T10:55:23.026Z,28.05
2023-04-25T10:56:22.930Z,28.06
2023-04-25T10:57:22.966Z,28.12
2023-04-25T10:58:22.986Z,28.18
2023-04-25T10:59:23.027Z,28.19
2023-04-25T11:00:25.815Z,28.23
2023-04-25T11:01:24.111Z,28.25
2023-04-25T11:02:23.152Z,28.27
2023-04-25T11:03:23.332Z,28.32
2023-04-25T11:04:23.458Z,28.35
2023-04-25T11:05:23.059Z,28.38
2023-04-25T11:06:23.015Z,28.39
2023-04-25T11:07:23.035Z,28.42
2023-04-25T11:08:23.010Z,28.46
2023-04-25T11:09:22.975Z,28.47
2023-04-25T11:10:22.990Z,28.53
2023-04-25T11:11:22.993Z,28.55
2023-04-25T11:12:22.966Z,28.57
2023-04-25T11:13:22.949Z,28.60
2023-04-25T11:14:22.977Z,28.64
2023-04-25T11:15:22.954Z,28.64
2023-04-25T11:16:28.297Z,28.69
2023-04-25T11:17:24.053Z,28.71
2023-04-25T11:18:22.973Z,28.69
2023-04-25T11:19:22.926Z,28.70
2023-04-25T11:20:22.916Z,28.76
2023-04-25T11:21:22.959Z,28.71
2023-04-25T11:22:22.916Z,28.76
2023-04-25T11:23:22.912Z,28.74
2023-04-25T11:24:22.876Z,28.77
2023-04-25T11:25:22.875Z,28.76
2023-04-25T11:26:22.897Z,28.76
2023-04-25T11:27:22.993Z,28.77
2023-04-25T11:28:23.212Z,28.78
2023-04-25T11:29:23.053Z,28.78
2023-04-25T11:30:23.129Z,28.76
2023-04-25T11:31:23.224Z,28.77
2023-04-25T11:32:24.285Z,28.78
2023-04-25T11:33:23.389Z,28.76
2023-04-25T11:34:23.327Z,28.76
2023-04-25T11:35:23.355Z,28.74
2023-04-25T11:36:23.379Z,28.76
2023-04-25T11:37:23.574Z,28.70
2023-04-25T11:38:25.366Z,28.73
2023-04-25T11:39:23.417Z,28.71
2023-04-25T11:40:23.412Z,28.69
2023-04-25T11:41:23.580Z,28.67
2023-04-25T11:42:23.445Z,28.64
2023-04-25T11:43:23.395Z,28.64
2023-04-25T11:44:23.417Z,28.62
2023-04-25T11:45:23.368Z,28.59
2023-04-25T11:46:23.399Z,28.56
2023-04-25T11:47:23.398Z,28.46
2023-04-25T11:48:26.319Z,28.39
2023-04-25T11:49:23.389Z,28.30
2023-04-25T11:50:23.345Z,28.25
2023-04-25T11:51:23.340Z,28.16
2023-04-25T11:52:23.338Z,28.12
2023-04-25T11:53:23.302Z,28.08
2023-04-25T11:54:23.337Z,28.05
2023-04-25T11:55:23.296Z,28.01
2023-04-25T11:56:23.324Z,28.01
2023-04-25T11:57:23.292Z,27.98
2023-04-25T11:58:23.330Z,27.98
2023-04-25T11:59:23.313Z,27.98
2023-04-25T12:00:23.341Z,27.96
2023-04-25T12:01:23.271Z,27.98
2023-04-25T12:02:23.380Z,27.98
2023-04-25T12:03:23.503Z,27.96
2023-04-25T12:04:23.740Z,27.98
2023-04-25T12:06:25.687Z,28.02
2023-04-25T12:07:23.242Z,28.03
2023-04-25T12:08:23.220Z,28.03
2023-04-25T12:09:23.238Z,28.06
2023-04-25T12:10:23.244Z,28.08
2023-04-25T12:11:23.224Z,28.05
2023-04-25T12:12:23.207Z,28.05
2023-04-25T12:13:23.216Z,28.09
2023-04-25T12:14:23.203Z,28.05
2023-04-25T12:15:23.189Z,28.03
2023-04-25T12:16:23.275Z,28.05
2023-04-25T12:17:23.221Z,28.05
2023-04-25T12:18:23.160Z,28.06
2023-04-25T12:19:23.169Z,28.03
2023-04-25T12:20:23.177Z,28.05
2023-04-25T12:21:23.149Z,28.06
2023-04-25T12:22:23.540Z,28.08
2023-04-25T12:23:23.125Z,28.11
2023-04-25T12:24:23.130Z,28.09
2023-04-25T12:25:23.127Z,28.09
2023-04-25T12:26:23.124Z,28.11
2023-04-25T12:27:23.109Z,28.13
2023-04-25T12:28:23.119Z,28.13
2023-04-25T12:29:23.813Z,28.13
2023-04-25T12:30:23.094Z,28.15
2023-04-25T12:31:23.142Z,28.16
2023-04-25T12:32:23.093Z,28.13
2023-04-25T12:33:23.095Z,28.15
2023-04-25T12:34:23.138Z,28.16
2023-04-25T12:35:23.058Z,28.18
2023-04-25T12:36:23.050Z,28.16
2023-04-25T12:37:23.056Z,28.12
2023-04-25T12:38:23.046Z,28.13
2023-04-25T12:39:23.052Z,28.15
2023-04-25T12:40:23.027Z,28.19
2023-04-25T12:41:22.998Z,28.19
2023-04-25T12:42:23.017Z,28.22
2023-04-25T12:43:23.058Z,28.22
2023-04-25T12:44:23.005Z,28.25
2023-04-25T12:45:22.961Z,28.26
2023-04-25T12:46:23.038Z,28.26
2023-04-25T12:47:23.007Z,28.26
2023-04-25T12:48:23.016Z,28.25
2023-04-25T12:49:23.055Z,28.25
2023-04-25T12:50:23.079Z,28.26
2023-04-25T12:51:23.132Z,28.26
2023-04-25T12:52:23.165Z,28.27
2023-04-25T12:53:23.185Z,28.29
2023-04-25T12:54:23.247Z,28.33
2023-04-25T12:55:23.244Z,28.39